Terminal Aerodrome Forecast
Issued by NWS

Home | Current Version | Previous Version | Graphics & Text | Print | Product List | Glossary On
Versions: 1 2 3 4 5 6 7 8 9 10 11 12 13 14 15 16 17
186
FTUS43 KMPX 261120
TAFAXN
TAF
KAXN 261120Z 2612/2712 20006KT P6SM BKN250
     FM261400 24010KT P6SM FEW250
     FM270100 12004KT P6SM BKN200=

USA.gov is the U.S. government's official web portal to all federal, state and local government web resources and services.